Aviation Digital Data Service (ADDS)

Output produced by TAFs form (0932 UTC 25 November 2017)
found at http://www.aviationweather.gov/adds/tafs/
 
METAR text: RJOW 250900Z 17006KT 9999 FEW025 BKN/// 07/04 Q1026
Conditions at: RJOW (IWAMI , JP) observed 0900 UTC 25 November 2017
Temperature: 7.0°C (45°F)
Dewpoint: 4.0°C (39°F) [RH = 81%]
Pressure (altimeter): 30.30 inches Hg (1026.0 mb)
Winds: from the S (170 degrees) at 7 MPH (6 knots; 3.1 m/s)
Visibility: 6 or more miles (10+ km)
Ceiling: at least 12,000 feet AGL
Clouds: few clouds at 2500 feet AGL
Weather: no significant weather observed at this time